createdAt,value
2022-09-21T00:00:41.683Z,11.33
2022-09-21T00:03:09.599Z,11.30
2022-09-21T00:05:38.867Z,11.37
2022-09-21T00:08:08.412Z,11.19
2022-09-21T00:10:36.111Z,11.20
2022-09-21T00:13:05.652Z,11.17
2022-09-21T00:15:33.602Z,11.02
2022-09-21T00:18:02.981Z,11.00
2022-09-21T00:20:30.671Z,11.02
2022-09-21T00:22:59.681Z,10.88
2022-09-21T00:25:27.367Z,10.76
2022-09-21T00:27:55.855Z,10.78
2022-09-21T00:30:23.578Z,10.79
2022-09-21T00:32:51.266Z,10.72
2022-09-21T00:35:18.935Z,10.63
2022-09-21T00:37:46.647Z,10.58
2022-09-21T00:40:15.719Z,10.60
2022-09-21T00:42:43.421Z,10.50
2022-09-21T00:45:21.075Z,10.53
2022-09-21T00:47:51.625Z,10.52
2022-09-21T00:50:23.349Z,10.48
2022-09-21T00:52:54.557Z,10.44
2022-09-21T00:55:31.075Z,10.52
2022-09-21T00:58:04.039Z,10.42
2022-09-21T01:00:31.852Z,10.45
2022-09-21T01:03:01.422Z,10.41
2022-09-21T01:05:29.596Z,10.42
2022-09-21T01:08:01.883Z,10.18
2022-09-21T01:10:40.374Z,10.24
2022-09-21T01:13:18.405Z,10.10
2022-09-21T01:15:56.772Z,9.89
2022-09-21T01:18:33.895Z,9.78
2022-09-21T01:21:18.422Z,9.52
2022-09-21T01:24:14.638Z,9.36
2022-09-21T01:27:08.187Z,9.24
2022-09-21T01:29:43.294Z,9.34
2022-09-21T01:32:15.611Z,9.23
2022-09-21T01:34:48.521Z,9.32
2022-09-21T01:37:21.099Z,9.18
2022-09-21T01:40:00.153Z,9.17
2022-09-21T01:42:29.522Z,8.90
2022-09-21T01:45:02.864Z,8.96
2022-09-21T01:47:31.710Z,9.20
2022-09-21T01:50:02.647Z,9.13
2022-09-21T01:52:37.228Z,9.15
2022-09-21T01:55:10.332Z,8.95
2022-09-21T01:57:44.225Z,8.95
2022-09-21T02:00:14.666Z,8.88
2022-09-21T02:02:47.738Z,8.98
2022-09-21T02:05:17.500Z,8.79
2022-09-21T02:07:45.881Z,8.74
2022-09-21T02:10:20.525Z,8.62
2022-09-21T02:12:49.393Z,8.64
2022-09-21T02:15:22.763Z,8.68
2022-09-21T02:17:59.687Z,8.59
2022-09-21T02:20:32.792Z,8.55
2022-09-21T02:23:07.578Z,8.60
2022-09-21T02:25:46.022Z,8.58
2022-09-21T02:28:21.360Z,8.54
2022-09-21T02:30:57.291Z,8.56
2022-09-21T02:33:32.299Z,8.55
2022-09-21T02:36:08.377Z,8.51
2022-09-21T02:38:40.520Z,8.36
2022-09-21T02:41:17.970Z,8.50
2022-09-21T02:43:52.132Z,8.40
2022-09-21T02:46:27.847Z,8.37
2022-09-21T02:49:00.730Z,8.40
2022-09-21T02:51:32.942Z,8.51
2022-09-21T02:54:03.101Z,8.45
2022-09-21T02:56:32.467Z,8.39
2022-09-21T02:59:04.319Z,8.57
2022-09-21T03:01:34.502Z,8.59
2022-09-21T03:04:02.869Z,8.50
2022-09-21T03:06:31.363Z,8.56
2022-09-21T03:08:59.065Z,8.35
2022-09-21T03:11:27.134Z,8.43
2022-09-21T03:13:54.882Z,8.50
2022-09-21T03:16:25.099Z,8.49
2022-09-21T03:18:54.148Z,8.32
2022-09-21T03:21:22.011Z,8.39
2022-09-21T03:23:49.759Z,8.43
2022-09-21T03:26:22.218Z,8.38
2022-09-21T03:28:49.961Z,8.23
2022-09-21T03:31:17.819Z,8.26
2022-09-21T03:33:45.524Z,8.19
2022-09-21T03:36:14.887Z,8.06
2022-09-21T03:38:42.660Z,8.24
2022-09-21T03:41:10.538Z,8.14
2022-09-21T03:43:38.205Z,8.11
2022-09-21T03:46:06.286Z,8.17
2022-09-21T03:48:34.055Z,8.19
2022-09-21T03:51:01.755Z,8.13
2022-09-21T03:53:30.799Z,8.12
2022-09-21T03:55:58.763Z,8.08
2022-09-21T03:58:26.411Z,8.18
2022-09-21T04:00:54.430Z,8.00
2022-09-21T04:03:22.244Z,7.98
2022-09-21T04:05:49.916Z,8.02
2022-09-21T04:08:17.615Z,7.93
2022-09-21T04:10:46.637Z,7.94
2022-09-21T04:13:14.367Z,7.84
2022-09-21T04:15:42.268Z,7.88
2022-09-21T04:18:09.936Z,7.82
2022-09-21T04:20:37.784Z,7.85
2022-09-21T04:23:05.533Z,7.78
2022-09-21T04:25:33.579Z,7.81
2022-09-21T04:28:03.079Z,7.72
2022-09-21T04:30:34.377Z,7.72
2022-09-21T04:33:05.393Z,7.77
2022-09-21T04:35:33.127Z,7.76
2022-09-21T04:38:00.835Z,7.65
2022-09-21T04:40:29.098Z,7.72
2022-09-21T04:42:56.858Z,7.56
2022-09-21T04:45:25.894Z,7.73
2022-09-21T04:47:53.550Z,7.65
2022-09-21T04:50:21.245Z,7.55
2022-09-21T04:52:48.918Z,7.48
2022-09-21T04:55:17.794Z,7.53
2022-09-21T04:57:45.530Z,7.57
2022-09-21T05:00:14.094Z,7.49
2022-09-21T05:02:43.091Z,7.71
2022-09-21T05:05:10.817Z,7.51
2022-09-21T05:07:38.453Z,7.64
2022-09-21T05:10:06.162Z,7.86
2022-09-21T05:12:38.597Z,7.77
2022-09-21T05:15:09.724Z,7.64
2022-09-21T05:17:37.395Z,7.60
2022-09-21T05:20:07.602Z,7.65
2022-09-21T05:22:35.511Z,7.60
2022-09-21T05:25:03.207Z,7.48
2022-09-21T05:27:30.877Z,7.60
2022-09-21T05:29:59.052Z,7.77
2022-09-21T05:32:34.057Z,7.57
2022-09-21T05:35:13.922Z,7.78
2022-09-21T05:37:54.863Z,7.81
2022-09-21T05:40:23.274Z,7.72
2022-09-21T05:42:51.611Z,7.90
2022-09-21T05:45:21.105Z,7.89
2022-09-21T05:48:07.889Z,7.78
2022-09-21T05:50:46.807Z,8.08
2022-09-21T05:53:24.150Z,8.12
2022-09-21T05:55:57.662Z,8.16
2022-09-21T05:58:33.281Z,8.30
2022-09-21T06:01:17.296Z,8.49
2022-09-21T06:03:47.531Z,8.64
2022-09-21T06:06:17.165Z,8.63
2022-09-21T06:08:44.822Z,8.84
2022-09-21T06:11:12.716Z,8.99
2022-09-21T06:13:40.979Z,9.05
2022-09-21T06:16:09.168Z,9.13
2022-09-21T06:18:38.778Z,9.49
2022-09-21T06:21:06.914Z,9.53
2022-09-21T06:23:36.696Z,9.68
2022-09-21T06:26:04.695Z,10.19
2022-09-21T06:28:32.356Z,10.27
2022-09-21T06:31:00.126Z,10.42
2022-09-21T06:33:27.889Z,10.44
2022-09-21T06:35:57.365Z,10.85
2022-09-21T06:38:25.887Z,10.92
2022-09-21T06:40:55.409Z,10.88
2022-09-21T06:43:23.379Z,11.39
2022-09-21T06:45:55.299Z,11.34
2022-09-21T06:48:24.749Z,11.55
2022-09-21T06:50:52.842Z,11.72
2022-09-21T06:53:20.595Z,11.75
2022-09-21T06:55:48.252Z,11.81
2022-09-21T06:58:17.380Z,11.61
2022-09-21T07:00:45.272Z,12.12
2022-09-21T07:03:13.297Z,12.39
2022-09-21T07:05:41.275Z,12.31
2022-09-21T07:10:04.973Z,12.63
2022-09-21T07:10:59.632Z,13.34
2022-09-21T07:13:28.763Z,13.47
2022-09-21T07:15:56.817Z,13.01
2022-09-21T07:18:25.327Z,13.39
2022-09-21T07:20:52.993Z,14.23
2022-09-21T07:23:22.301Z,14.10
2022-09-21T07:25:52.345Z,13.39
2022-09-21T07:28:20.654Z,14.64
2022-09-21T07:30:49.866Z,14.19
2022-09-21T07:33:17.554Z,14.35
2022-09-21T07:35:52.044Z,15.09
2022-09-21T07:38:20.167Z,15.39
2022-09-21T07:40:47.875Z,16.29
2022-09-21T07:43:15.924Z,16.32
2022-09-21T07:45:43.633Z,16.13
2022-09-21T07:48:13.261Z,15.94
2022-09-21T07:50:40.916Z,15.65
2022-09-21T07:53:08.580Z,14.97
2022-09-21T07:55:36.223Z,15.42
2022-09-21T07:58:21.167Z,14.95
2022-09-21T08:00:49.327Z,15.62
2022-09-21T08:03:18.436Z,15.39
2022-09-21T08:05:46.119Z,16.24
2022-09-21T08:08:13.822Z,16.80
2022-09-21T08:10:41.479Z,17.17
2022-09-21T08:13:09.278Z,15.38
2022-09-21T08:15:49.459Z,16.31
2022-09-21T08:18:19.252Z,16.10
2022-09-21T08:20:55.360Z,16.69
2022-09-21T08:23:23.070Z,16.49
2022-09-21T08:25:51.096Z,17.68
2022-09-21T08:28:18.956Z,16.68
2022-09-21T08:30:46.600Z,16.75
2022-09-21T08:33:14.584Z,17.73
2022-09-21T08:35:43.595Z,18.54
2022-09-21T08:38:11.532Z,17.90
2022-09-21T08:40:41.782Z,18.02
2022-09-21T08:43:14.154Z,17.10
2022-09-21T08:45:44.403Z,17.23
2022-09-21T08:48:18.434Z,17.61
2022-09-21T08:50:53.011Z,17.86
2022-09-21T08:53:26.954Z,17.53
2022-09-21T08:55:57.257Z,18.38
2022-09-21T08:58:26.686Z,17.25
2022-09-21T09:01:07.617Z,18.34
2022-09-21T09:04:00.506Z,18.44
2022-09-21T09:06:38.554Z,17.85
2022-09-21T09:09:22.849Z,16.22
2022-09-21T09:12:08.702Z,16.77
2022-09-21T09:14:59.967Z,17.69
2022-09-21T09:17:37.338Z,16.41
2022-09-21T09:20:11.454Z,18.41
2022-09-21T09:22:44.349Z,18.60
2022-09-21T09:25:20.113Z,18.17
2022-09-21T09:27:50.127Z,18.28
2022-09-21T09:30:20.784Z,18.51
2022-09-21T09:32:57.066Z,18.66
2022-09-21T09:35:29.451Z,18.51
2022-09-21T09:38:03.694Z,18.96
2022-09-21T09:40:49.654Z,18.67
2022-09-21T09:43:26.943Z,17.94
2022-09-21T09:46:05.252Z,18.69
2022-09-21T09:48:51.949Z,17.37
2022-09-21T09:51:21.958Z,17.10
2022-09-21T09:53:52.206Z,17.64
2022-09-21T09:56:20.060Z,18.65
2022-09-21T09:58:51.651Z,18.70
2022-09-21T10:01:42.704Z,18.20
2022-09-21T10:04:12.404Z,18.28
2022-09-21T10:06:45.358Z,19.03
2022-09-21T10:09:27.067Z,17.62
2022-09-21T10:11:57.595Z,17.65
2022-09-21T10:14:26.693Z,19.09
2022-09-21T10:16:56.637Z,18.35
2022-09-21T10:19:26.581Z,18.14
2022-09-21T10:21:58.379Z,18.95
2022-09-21T10:24:30.782Z,18.58
2022-09-21T10:27:07.356Z,20.04
2022-09-21T10:29:43.624Z,20.17
2022-09-21T10:32:26.460Z,20.25
2022-09-21T10:35:15.453Z,21.11
2022-09-21T10:37:44.422Z,21.28
2022-09-21T10:40:28.708Z,21.57
2022-09-21T10:42:59.012Z,20.88
2022-09-21T10:45:28.473Z,21.03
2022-09-21T10:47:58.392Z,21.58
2022-09-21T10:50:29.712Z,23.19
2022-09-21T10:53:01.286Z,23.76
2022-09-21T10:55:32.071Z,23.78
2022-09-21T10:58:00.915Z,22.53
2022-09-21T11:00:35.442Z,22.27
2022-09-21T11:03:25.860Z,22.50
2022-09-21T11:05:54.630Z,22.85
2022-09-21T11:08:29.739Z,25.05
2022-09-21T11:11:14.702Z,24.34
2022-09-21T11:13:50.669Z,23.60
2022-09-21T11:16:27.443Z,24.77
2022-09-21T11:19:02.289Z,23.09
2022-09-21T11:21:37.184Z,22.83
2022-09-21T11:24:13.304Z,23.52
2022-09-21T11:26:48.573Z,23.21
2022-09-21T11:29:23.219Z,23.45
2022-09-21T11:32:08.580Z,23.35
2022-09-21T11:34:55.890Z,23.61
2022-09-21T11:37:42.135Z,24.73
2022-09-21T11:40:33.343Z,24.71
2022-09-21T11:43:12.452Z,23.78
2022-09-21T11:45:57.460Z,24.34
2022-09-21T11:48:36.440Z,23.61
2022-09-21T11:51:18.841Z,24.68
2022-09-21T11:53:59.795Z,24.16
2022-09-21T11:56:41.007Z,25.35
2022-09-21T11:59:26.268Z,24.80
2022-09-21T12:02:22.379Z,24.42
2022-09-21T12:04:55.890Z,24.56
2022-09-21T12:07:42.450Z,23.30
2022-09-21T12:10:37.679Z,24.29
2022-09-21T12:13:10.153Z,22.48
2022-09-21T12:15:47.015Z,24.25
2022-09-21T12:18:26.196Z,22.14
2022-09-21T12:21:01.469Z,23.84
2022-09-21T12:23:38.029Z,23.65
2022-09-21T12:26:07.589Z,22.83
2022-09-21T12:28:40.661Z,23.80
2022-09-21T12:31:16.899Z,23.02
2022-09-21T12:33:50.521Z,22.99
2022-09-21T12:36:21.396Z,23.81
2022-09-21T12:38:56.143Z,23.51
2022-09-21T12:41:32.052Z,23.59
2022-09-21T12:44:06.773Z,23.13
2022-09-21T12:46:41.868Z,21.00
2022-09-21T12:49:15.223Z,20.05
2022-09-21T12:51:47.622Z,19.57
2022-09-21T12:54:25.204Z,18.88
2022-09-21T12:56:58.888Z,18.38
2022-09-21T12:59:35.484Z,18.37
2022-09-21T13:02:19.988Z,18.45
2022-09-21T13:04:59.445Z,18.27
2022-09-21T13:07:46.811Z,18.38
2022-09-21T13:10:22.106Z,18.06
2022-09-21T13:12:59.454Z,18.06
2022-09-21T13:15:30.514Z,18.03
2022-09-21T13:18:01.657Z,18.24
2022-09-21T13:20:35.878Z,18.55
2022-09-21T13:23:04.016Z,18.58
2022-09-21T13:25:37.479Z,18.54
2022-09-21T13:28:21.434Z,20.34
2022-09-21T13:30:50.498Z,20.69
2022-09-21T13:33:38.981Z,20.97
2022-09-21T13:36:31.228Z,21.48
2022-09-21T13:39:18.016Z,20.84
2022-09-21T13:42:02.223Z,20.89
2022-09-21T13:44:43.286Z,20.10
2022-09-21T13:47:14.486Z,18.89
2022-09-21T13:49:50.766Z,19.12
2022-09-21T13:52:33.355Z,17.94
2022-09-21T13:55:04.057Z,17.66
2022-09-21T13:57:37.891Z,17.56
2022-09-21T14:00:35.908Z,17.41
2022-09-21T14:03:07.289Z,17.47
2022-09-21T14:05:42.475Z,17.30
2022-09-21T14:08:23.056Z,17.08
2022-09-21T14:10:55.170Z,17.31
2022-09-21T14:13:29.243Z,16.91
2022-09-21T14:16:27.787Z,17.07
2022-09-21T14:18:56.274Z,16.82
2022-09-21T14:21:25.375Z,16.85
2022-09-21T14:24:22.135Z,16.98
2022-09-21T14:27:01.590Z,17.01
2022-09-21T14:29:39.479Z,17.09
2022-09-21T14:32:17.262Z,17.03
2022-09-21T14:34:49.568Z,16.95
2022-09-21T14:37:29.582Z,16.87
2022-09-21T14:39:59.164Z,17.10
2022-09-21T14:42:29.082Z,17.39
2022-09-21T14:45:02.110Z,17.54
2022-09-21T14:47:42.087Z,17.76
2022-09-21T14:50:31.758Z,17.69
2022-09-21T14:53:28.000Z,17.77
2022-09-21T14:56:23.055Z,17.50
2022-09-21T14:59:19.148Z,17.19
2022-09-21T15:01:58.260Z,17.42
2022-09-21T15:04:45.914Z,17.92
2022-09-21T15:07:44.681Z,17.51
2022-09-21T15:10:49.713Z,17.36
2022-09-21T15:13:51.628Z,17.37
2022-09-21T15:16:27.449Z,17.28
2022-09-21T15:19:11.833Z,17.30
2022-09-21T15:21:43.468Z,17.10
2022-09-21T15:24:34.072Z,16.90
2022-09-21T15:27:11.149Z,17.00
2022-09-21T15:29:39.995Z,17.60
2022-09-21T15:32:08.305Z,17.45
2022-09-21T15:34:36.229Z,17.61
2022-09-21T15:37:08.924Z,17.42
2022-09-21T15:39:36.937Z,17.23
2022-09-21T15:42:19.668Z,16.94
2022-09-21T15:44:49.044Z,17.00
2022-09-21T15:47:20.318Z,17.07
2022-09-21T15:49:48.295Z,17.46
2022-09-21T15:52:26.762Z,16.98
2022-09-21T15:54:58.513Z,16.72
2022-09-21T15:57:38.455Z,16.80
2022-09-21T16:00:18.837Z,16.81
2022-09-21T16:03:04.231Z,16.85
2022-09-21T16:05:43.509Z,16.95
2022-09-21T16:08:22.504Z,16.78
2022-09-21T16:10:50.983Z,16.63
2022-09-21T16:13:39.141Z,16.52
2022-09-21T16:16:09.072Z,16.10
2022-09-21T16:18:48.255Z,16.08
2022-09-21T16:21:21.934Z,16.10
2022-09-21T16:23:51.408Z,15.87
2022-09-21T16:26:22.681Z,15.92
2022-09-21T16:28:58.769Z,15.96
2022-09-21T16:31:32.643Z,15.92
2022-09-21T16:34:07.463Z,15.83
2022-09-21T16:36:38.208Z,15.73
2022-09-21T16:39:15.024Z,15.80
2022-09-21T16:41:50.301Z,15.74
2022-09-21T16:44:25.554Z,15.70
2022-09-21T16:46:56.334Z,15.56
2022-09-21T16:49:30.186Z,15.41
2022-09-21T16:51:59.167Z,15.48
2022-09-21T16:54:27.644Z,15.55
2022-09-21T16:56:57.374Z,15.46
2022-09-21T16:59:26.871Z,15.49
2022-09-21T17:01:56.915Z,15.52
2022-09-21T17:04:26.699Z,15.45
2022-09-21T17:06:55.350Z,15.54
2022-09-21T17:09:29.197Z,15.34
2022-09-21T17:12:00.223Z,15.22
2022-09-21T17:14:35.074Z,15.22
2022-09-21T17:17:05.721Z,15.27
2022-09-21T17:19:34.772Z,15.12
2022-09-21T17:22:03.827Z,15.00
2022-09-21T17:24:49.704Z,15.05
2022-09-21T17:27:19.185Z,14.89
2022-09-21T17:29:49.289Z,14.98
2022-09-21T17:32:20.380Z,15.00
2022-09-21T17:34:53.200Z,14.88
2022-09-21T17:37:21.797Z,14.70
2022-09-21T17:39:49.885Z,14.71
2022-09-21T17:42:21.103Z,14.70
2022-09-21T17:45:04.302Z,14.51
2022-09-21T17:47:33.764Z,14.59
2022-09-21T17:50:16.920Z,14.56
2022-09-21T17:53:02.721Z,14.35
2022-09-21T17:55:30.993Z,14.37
2022-09-21T17:58:16.510Z,14.19
2022-09-21T18:00:54.395Z,14.20
2022-09-21T18:03:24.403Z,13.78
2022-09-21T18:05:54.647Z,13.82
2022-09-21T18:08:22.809Z,13.90
2022-09-21T18:11:12.119Z,13.82
2022-09-21T18:13:52.243Z,13.70
2022-09-21T18:16:35.637Z,13.76
2022-09-21T18:19:13.897Z,13.72
2022-09-21T18:21:45.657Z,13.76
2022-09-21T18:24:20.583Z,13.71
2022-09-21T18:26:49.107Z,13.60
2022-09-21T18:29:45.688Z,13.68
2022-09-21T18:32:43.195Z,13.50
2022-09-21T18:35:24.758Z,13.35
2022-09-21T18:38:03.926Z,13.21
2022-09-21T18:40:38.704Z,13.17
2022-09-21T18:43:21.886Z,13.15
2022-09-21T18:45:56.357Z,12.75
2022-09-21T18:48:37.023Z,12.61
2022-09-21T18:51:11.610Z,12.68
2022-09-21T18:53:46.659Z,12.71
2022-09-21T18:56:15.242Z,12.77
2022-09-21T18:58:43.865Z,12.75
2022-09-21T19:01:13.275Z,12.75
2022-09-21T19:03:43.813Z,12.39
2022-09-21T19:06:23.232Z,12.63
2022-09-21T19:08:58.142Z,12.57
2022-09-21T19:11:32.503Z,12.31
2022-09-21T19:14:08.340Z,12.52
2022-09-21T19:16:43.601Z,12.45
2022-09-21T19:19:26.002Z,12.31
2022-09-21T19:21:57.348Z,12.07
2022-09-21T19:24:31.506Z,12.16
2022-09-21T19:27:14.005Z,12.08
2022-09-21T19:29:52.253Z,11.89
2022-09-21T19:32:25.830Z,12.18
2022-09-21T19:34:57.694Z,12.27
2022-09-21T19:37:25.473Z,12.18
2022-09-21T19:39:53.453Z,12.24
2022-09-21T19:42:30.069Z,12.18
2022-09-21T19:45:11.455Z,11.91
2022-09-21T19:47:47.753Z,11.74
2022-09-21T19:50:20.751Z,11.67
2022-09-21T19:52:49.123Z,11.54
2022-09-21T19:55:36.684Z,11.62
2022-09-21T19:58:23.436Z,11.71
2022-09-21T20:00:54.209Z,11.86
2022-09-21T20:03:31.612Z,11.80
2022-09-21T20:06:07.177Z,11.62
2022-09-21T20:08:42.282Z,11.44
2022-09-21T20:11:14.756Z,11.07
2022-09-21T20:13:59.811Z,10.94
2022-09-21T20:16:37.440Z,10.99
2022-09-21T20:19:14.691Z,10.66
2022-09-21T20:21:46.286Z,10.49
2022-09-21T20:24:23.697Z,10.58
2022-09-21T20:26:52.963Z,10.54
2022-09-21T20:29:21.775Z,10.30
2022-09-21T20:31:52.546Z,10.32
2022-09-21T20:34:20.569Z,10.23
2022-09-21T20:36:49.584Z,10.09
2022-09-21T20:39:17.271Z,10.36
2022-09-21T20:41:45.059Z,10.33
2022-09-21T20:44:14.230Z,10.36
2022-09-21T20:46:41.934Z,10.26
2022-09-21T20:49:09.692Z,10.20
2022-09-21T20:51:37.560Z,10.22
2022-09-21T20:54:07.115Z,10.06
2022-09-21T20:56:35.496Z,10.10
2022-09-21T20:59:03.117Z,10.05
2022-09-21T21:01:30.860Z,10.00
2022-09-21T21:04:02.852Z,9.81
2022-09-21T21:06:32.719Z,9.80
2022-09-21T21:09:00.976Z,9.71
2022-09-21T21:11:30.391Z,9.59
2022-09-21T21:13:59.117Z,9.57
2022-09-21T21:16:26.831Z,9.54
2022-09-21T21:18:54.526Z,9.60
2022-09-21T21:21:24.577Z,9.53
2022-09-21T21:24:10.372Z,9.45
2022-09-21T21:27:00.772Z,9.44
2022-09-21T21:29:27.468Z,9.54
2022-09-21T21:31:55.159Z,9.67
2022-09-21T21:34:23.105Z,9.59
2022-09-21T21:36:50.850Z,9.44
2022-09-21T21:39:18.540Z,9.39
2022-09-21T21:41:47.594Z,9.48
2022-09-21T21:44:15.696Z,9.49
2022-09-21T21:46:43.892Z,9.58
2022-09-21T21:49:11.515Z,9.57
2022-09-21T21:51:39.458Z,9.57
2022-09-21T21:54:07.325Z,9.55
2022-09-21T21:56:35.141Z,9.58
2022-09-21T21:59:04.290Z,9.60
2022-09-21T22:01:31.998Z,9.40
2022-09-21T22:04:02.092Z,9.47
2022-09-21T22:06:31.492Z,9.48
2022-09-21T22:09:00.210Z,9.42
2022-09-21T22:11:29.028Z,9.51
2022-09-21T22:13:58.405Z,9.46
2022-09-21T22:16:29.657Z,9.30
2022-09-21T22:18:58.070Z,9.31
2022-09-21T22:21:28.888Z,9.33
2022-09-21T22:24:02.204Z,9.38
2022-09-21T22:26:32.205Z,9.26
2022-09-21T22:29:02.691Z,9.25
2022-09-21T22:31:34.578Z,9.33
2022-09-21T22:34:02.971Z,8.95
2022-09-21T22:36:33.743Z,8.91
2022-09-21T22:39:01.935Z,9.10
2022-09-21T22:41:31.556Z,9.07
2022-09-21T22:44:00.176Z,9.14
2022-09-21T22:46:30.942Z,9.02
2022-09-21T22:49:00.589Z,9.02
2022-09-21T22:51:29.307Z,8.94
2022-09-21T22:53:57.769Z,8.92
2022-09-21T22:56:28.236Z,8.92
2022-09-21T22:58:57.912Z,8.94
2022-09-21T23:01:27.392Z,8.82
2022-09-21T23:03:58.030Z,8.85
2022-09-21T23:06:29.619Z,8.81
2022-09-21T23:08:59.097Z,8.84
2022-09-21T23:11:28.775Z,8.78
2022-09-21T23:13:57.388Z,8.68
2022-09-21T23:16:26.123Z,8.66
2022-09-21T23:18:54.071Z,8.65
2022-09-21T23:21:24.129Z,8.58
2022-09-21T23:23:56.089Z,8.53
2022-09-21T23:26:26.139Z,8.51
2022-09-21T23:28:56.946Z,8.50
2022-09-21T23:31:26.662Z,8.37
2022-09-21T23:33:56.642Z,8.28
2022-09-21T23:36:26.214Z,8.31
2022-09-21T23:38:55.454Z,8.30
2022-09-21T23:41:25.171Z,8.33
2022-09-21T23:43:53.371Z,8.26
2022-09-21T23:46:22.702Z,8.20
2022-09-21T23:48:51.564Z,8.27
2022-09-21T23:51:20.003Z,8.18
2022-09-21T23:53:47.847Z,8.29
2022-09-21T23:56:19.164Z,8.31
2022-09-21T23:58:47.487Z,8.25
